createdAt,value
2018-04-25T00:00:23.219Z,67.75
2018-04-25T00:02:50.649Z,68.06
2018-04-25T00:05:18.142Z,67.68
2018-04-25T00:07:45.580Z,67.67
2018-04-25T00:10:13.112Z,67.88
2018-04-25T00:12:40.557Z,68.03
2018-04-25T00:15:08.009Z,67.85
2018-04-25T00:17:35.441Z,68.27
2018-04-25T00:20:02.893Z,68.21
2018-04-25T00:22:30.365Z,68.18
2018-04-25T00:24:57.789Z,68.34
2018-04-25T00:27:25.241Z,68.02
2018-04-25T00:30:06.905Z,67.86
2018-04-25T00:32:34.348Z,67.76
2018-04-25T00:35:01.798Z,67.81
2018-04-25T00:37:29.274Z,68.03
2018-04-25T00:42:49.840Z,68.14
2018-04-25T00:45:17.307Z,67.78
2018-04-25T00:47:44.760Z,67.80
2018-04-25T00:50:12.187Z,68.03
2018-04-25T00:52:39.661Z,68.02
2018-04-25T00:55:07.141Z,67.51
2018-04-25T00:57:34.613Z,67.35
2018-04-25T01:00:11.742Z,67.24
2018-04-25T01:02:39.247Z,67.11
2018-04-25T01:05:06.735Z,66.83
2018-04-25T01:07:34.170Z,66.53
2018-04-25T01:10:11.339Z,66.50
2018-04-25T01:12:38.758Z,66.36
2018-04-25T01:15:06.203Z,66.22
2018-04-25T01:17:33.697Z,66.18
2018-04-25T01:25:46.905Z,65.67
2018-04-25T01:28:14.951Z,65.51
2018-04-25T01:30:46.194Z,65.32
2018-04-25T01:33:23.658Z,65.21
2018-04-25T01:36:01.507Z,65.20
2018-04-25T01:38:32.882Z,65.28
2018-04-25T01:41:09.883Z,64.96
2018-04-25T01:43:38.826Z,65.06
2018-04-25T01:46:08.905Z,65.10
2018-04-25T01:51:41.788Z,65.26
2018-04-25T01:54:21.054Z,65.25
2018-04-25T01:57:00.216Z,64.91
2018-04-25T01:59:39.386Z,65.01
2018-04-25T02:02:06.266Z,64.98
2018-04-25T02:04:33.710Z,65.00
2018-04-25T02:07:01.148Z,65.28
2018-04-25T02:09:28.584Z,65.29
2018-04-25T02:11:56.003Z,65.25
2018-04-25T02:14:23.493Z,65.43
2018-04-25T02:16:50.910Z,65.44
2018-04-25T02:19:18.346Z,65.50
2018-04-25T02:21:45.794Z,65.48
2018-04-25T02:24:13.203Z,65.43
2018-04-25T02:26:40.654Z,65.34
2018-04-25T02:32:00.883Z,65.44
2018-04-25T02:34:28.348Z,65.50
2018-04-25T02:36:55.781Z,65.42
2018-04-25T02:39:23.212Z,65.28
2018-04-25T02:41:50.658Z,65.22
2018-04-25T02:44:18.120Z,65.16
2018-04-25T02:46:45.569Z,65.31
2018-04-25T02:49:13.021Z,65.20
2018-04-25T02:51:40.454Z,65.39
2018-04-25T02:54:07.884Z,65.56
2018-04-25T02:56:35.332Z,65.50
2018-04-25T02:59:02.772Z,65.83
2018-04-25T03:01:30.210Z,65.84
2018-04-25T03:03:57.669Z,65.88
2018-04-25T03:06:25.089Z,65.92
2018-04-25T03:08:52.530Z,66.04
2018-04-25T03:11:19.960Z,65.90
2018-04-25T03:13:47.413Z,65.92
2018-04-25T03:16:14.906Z,65.99
2018-04-25T03:18:42.335Z,66.06
2018-04-25T03:21:09.778Z,66.07
2018-04-25T03:23:37.208Z,66.30
2018-04-25T03:26:04.652Z,66.34
2018-04-25T03:28:32.100Z,66.33
2018-04-25T03:30:59.519Z,66.54
2018-04-25T03:33:26.934Z,66.50
2018-04-25T03:35:54.342Z,66.54
2018-04-25T03:38:21.787Z,66.71
2018-04-25T03:40:49.266Z,66.84
2018-04-25T03:43:16.701Z,66.90
2018-04-25T03:45:44.154Z,66.82
2018-04-25T03:48:11.576Z,66.81
2018-04-25T03:50:48.704Z,66.74
2018-04-25T03:53:16.190Z,66.85
2018-04-25T03:55:43.620Z,66.81
2018-04-25T03:58:11.049Z,66.92
2018-04-25T04:00:38.534Z,66.98
2018-04-25T04:03:05.985Z,67.04
2018-04-25T04:05:33.447Z,67.13
2018-04-25T04:08:00.900Z,67.18
2018-04-25T04:10:28.382Z,67.33
2018-04-25T04:12:55.889Z,67.53
2018-04-25T04:15:23.270Z,67.24
2018-04-25T04:17:50.690Z,67.30
2018-04-25T04:20:18.114Z,67.11
2018-04-25T04:22:45.538Z,67.04
2018-04-25T04:25:12.983Z,66.99
2018-04-25T04:27:40.417Z,66.93
2018-04-25T04:30:22.063Z,66.78
2018-04-25T04:32:49.536Z,66.75
2018-04-25T04:35:16.954Z,66.89
2018-04-25T04:37:44.404Z,66.73
2018-04-25T04:40:11.843Z,66.54
2018-04-25T04:42:39.300Z,66.24
2018-04-25T04:45:06.710Z,66.03
2018-04-25T04:47:34.179Z,65.83
2018-04-25T04:53:17.802Z,65.67
2018-04-25T04:55:45.231Z,65.66
2018-04-25T04:58:12.684Z,65.72
2018-04-25T05:00:40.136Z,65.63
2018-04-25T05:03:07.593Z,65.73
2018-04-25T05:05:35.062Z,65.49
2018-04-25T05:08:02.510Z,65.21
2018-04-25T05:10:29.994Z,65.29
2018-04-25T05:12:57.420Z,65.41
2018-04-25T05:15:24.876Z,65.03
2018-04-25T05:17:52.462Z,65.32
2018-04-25T05:20:19.907Z,65.25
2018-04-25T05:22:47.460Z,65.15
2018-04-25T05:25:14.900Z,64.75
2018-04-25T05:27:42.364Z,64.67
2018-04-25T05:33:02.690Z,64.23
2018-04-25T05:35:30.156Z,64.40
2018-04-25T05:37:57.585Z,64.33
2018-04-25T05:40:25.018Z,64.42
2018-04-25T05:42:52.459Z,64.50
2018-04-25T05:45:19.885Z,64.39
2018-04-25T05:47:47.342Z,64.50
2018-04-25T05:50:14.849Z,64.63
2018-04-25T05:52:42.266Z,64.44
2018-04-25T05:55:09.713Z,63.99
2018-04-25T05:57:37.151Z,63.74
2018-04-25T06:00:04.607Z,63.49
2018-04-25T06:02:32.069Z,63.53
2018-04-25T06:04:59.579Z,63.38
2018-04-25T06:07:27.039Z,62.86
2018-04-25T06:09:54.765Z,62.67
2018-04-25T06:12:22.239Z,62.53
2018-04-25T06:14:49.711Z,62.25
2018-04-25T06:17:17.147Z,62.13
2018-04-25T06:19:44.587Z,61.86
2018-04-25T06:22:12.132Z,61.02
2018-04-25T06:24:39.595Z,61.03
2018-04-25T06:27:07.032Z,61.12
2018-04-25T06:29:34.613Z,60.64
2018-04-25T06:32:02.060Z,60.47
2018-04-25T06:34:30.232Z,60.36
2018-04-25T06:36:57.666Z,59.89
2018-04-25T06:39:25.158Z,59.89
2018-04-25T06:41:52.544Z,59.55
2018-04-25T06:44:19.966Z,59.73
2018-04-25T06:46:47.451Z,59.66
2018-04-25T06:49:14.920Z,59.64
2018-04-25T06:51:42.371Z,59.72
2018-04-25T06:54:09.825Z,60.01
2018-04-25T06:56:37.283Z,59.89
2018-04-25T06:59:04.753Z,60.21
2018-04-25T07:01:32.226Z,59.81
2018-04-25T07:03:59.654Z,59.93
2018-04-25T07:06:27.102Z,60.20
2018-04-25T07:08:55.439Z,60.35
2018-04-25T07:11:22.847Z,60.38
2018-04-25T07:13:50.729Z,60.53
2018-04-25T07:16:18.175Z,60.13
2018-04-25T07:18:45.620Z,59.92
2018-04-25T07:21:13.061Z,59.80
2018-04-25T07:23:40.486Z,59.45
2018-04-25T07:26:07.940Z,59.39
2018-04-25T07:28:35.399Z,58.80
2018-04-25T07:31:02.837Z,58.74
2018-04-25T07:33:30.286Z,58.79
2018-04-25T07:35:57.728Z,58.58
2018-04-25T07:38:25.155Z,58.48
2018-04-25T07:40:52.590Z,58.65
2018-04-25T07:43:20.002Z,58.97
2018-04-25T07:45:47.445Z,59.22
2018-04-25T07:48:14.879Z,59.25
2018-04-25T07:53:34.873Z,60.06
2018-04-25T07:56:02.365Z,59.69
2018-04-25T07:58:29.822Z,58.55
2018-04-25T08:00:57.274Z,57.73
2018-04-25T08:03:24.739Z,56.87
2018-04-25T08:05:52.794Z,56.17
2018-04-25T08:08:20.266Z,55.51
2018-04-25T08:13:52.065Z,54.71
2018-04-25T08:16:31.380Z,54.33
2018-04-25T08:19:10.594Z,54.44
2018-04-25T08:21:43.205Z,54.51
2018-04-25T08:24:10.776Z,55.04
2018-04-25T08:26:38.218Z,54.65
2018-04-25T08:29:10.629Z,54.88
2018-04-25T08:31:38.073Z,55.25
2018-04-25T08:34:05.503Z,55.04
2018-04-25T08:36:32.929Z,55.44
2018-04-25T08:39:00.367Z,55.45
2018-04-25T08:41:28.009Z,55.88
2018-04-25T08:43:55.435Z,56.24
2018-04-25T08:46:22.879Z,55.03
2018-04-25T08:48:50.315Z,54.37
2018-04-25T08:51:17.788Z,54.00
2018-04-25T08:53:45.255Z,53.23
2018-04-25T08:56:12.709Z,53.47
2018-04-25T08:58:40.141Z,52.69
2018-04-25T09:01:07.585Z,52.28
2018-04-25T09:03:35.077Z,52.58
2018-04-25T09:06:03.728Z,52.12
2018-04-25T09:08:35.953Z,51.70
2018-04-25T09:11:07.265Z,51.07
2018-04-25T09:13:34.738Z,50.29
2018-04-25T09:16:02.211Z,49.93
2018-04-25T09:18:29.650Z,48.63
2018-04-25T09:20:57.122Z,48.59
2018-04-25T09:23:24.573Z,49.58
2018-04-25T09:25:52.094Z,50.50
2018-04-25T09:28:19.540Z,50.96
2018-04-25T09:30:47.030Z,51.22
2018-04-25T09:33:14.488Z,52.45
2018-04-25T09:35:41.961Z,52.06
2018-04-25T09:38:09.476Z,51.42
2018-04-25T09:41:00.583Z,51.95
2018-04-25T09:43:28.019Z,52.10
2018-04-25T09:45:55.516Z,52.25
2018-04-25T09:48:22.979Z,52.33
2018-04-25T09:50:50.453Z,52.43
2018-04-25T09:53:17.898Z,52.77
2018-04-25T09:55:45.399Z,53.08
2018-04-25T09:58:12.835Z,52.92
2018-04-25T10:00:46.045Z,51.92
2018-04-25T10:03:19.207Z,51.31
2018-04-25T10:05:46.654Z,50.69
2018-04-25T10:08:14.079Z,50.74
2018-04-25T10:10:55.862Z,50.68
2018-04-25T10:13:23.267Z,50.24
2018-04-25T10:15:50.708Z,49.49
2018-04-25T10:18:18.197Z,48.24
2018-04-25T10:20:45.632Z,47.90
2018-04-25T10:23:13.128Z,47.36
2018-04-25T10:25:40.609Z,45.79
2018-04-25T10:28:08.018Z,46.20
2018-04-25T10:30:35.552Z,46.27
2018-04-25T10:33:02.998Z,44.47
2018-04-25T10:35:30.472Z,44.48
2018-04-25T10:37:57.894Z,42.83
2018-04-25T10:40:25.474Z,41.88
2018-04-25T10:42:52.930Z,41.13
2018-04-25T10:45:20.361Z,40.88
2018-04-25T10:47:47.842Z,40.35
2018-04-25T10:50:15.320Z,40.25
2018-04-25T10:52:42.751Z,39.47
2018-04-25T10:55:10.189Z,39.87
2018-04-25T10:57:37.626Z,40.41
2018-04-25T11:00:05.077Z,41.04
2018-04-25T11:02:32.638Z,40.40
2018-04-25T11:05:00.044Z,41.12
2018-04-25T11:07:27.555Z,41.73
2018-04-25T11:09:55.024Z,42.58
2018-04-25T11:12:22.465Z,42.67
2018-04-25T11:14:49.989Z,43.21
2018-04-25T11:17:17.407Z,43.77
2018-04-25T11:19:44.836Z,43.81
2018-04-25T11:22:12.279Z,44.24
2018-04-25T11:24:39.750Z,43.66
2018-04-25T11:27:07.206Z,42.64
2018-04-25T11:29:34.633Z,42.81
2018-04-25T11:32:02.091Z,41.39
2018-04-25T11:34:29.546Z,40.52
2018-04-25T11:36:56.987Z,40.53
2018-04-25T11:39:24.462Z,41.39
2018-04-25T11:41:51.928Z,41.87
2018-04-25T11:44:19.361Z,42.88
2018-04-25T11:46:46.794Z,43.54
2018-04-25T11:49:14.242Z,43.47
2018-04-25T11:51:41.680Z,43.85
2018-04-25T11:54:09.347Z,43.59
2018-04-25T11:56:36.811Z,43.45
2018-04-25T11:59:04.258Z,44.16
2018-04-25T12:01:31.781Z,44.49
2018-04-25T12:03:59.307Z,44.37
2018-04-25T12:06:26.752Z,44.88
2018-04-25T12:08:54.234Z,45.20
2018-04-25T12:11:21.681Z,45.82
2018-04-25T12:13:49.146Z,46.59
2018-04-25T12:16:16.611Z,45.28
2018-04-25T12:18:44.352Z,45.64
2018-04-25T12:21:11.769Z,47.32
2018-04-25T12:23:39.277Z,48.64
2018-04-25T12:26:07.144Z,50.03
2018-04-25T12:28:34.671Z,50.90
2018-04-25T12:31:02.144Z,51.86
2018-04-25T12:33:29.610Z,52.76
2018-04-25T12:35:57.057Z,52.88
2018-04-25T12:38:24.544Z,51.52
2018-04-25T12:40:52.068Z,50.55
2018-04-25T12:43:19.702Z,50.76
2018-04-25T12:45:47.385Z,50.71
2018-04-25T12:48:14.844Z,50.73
2018-04-25T12:51:01.605Z,51.82
2018-04-25T12:53:29.217Z,52.69
2018-04-25T12:55:57.798Z,53.82
2018-04-25T12:58:25.250Z,54.80
2018-04-25T13:00:52.708Z,54.90
2018-04-25T13:03:20.931Z,54.73
2018-04-25T13:05:48.466Z,51.87
2018-04-25T13:08:16.825Z,49.95
2018-04-25T13:10:44.524Z,49.35
2018-04-25T13:13:12.265Z,50.12
2018-04-25T13:15:39.709Z,50.04
2018-04-25T13:18:07.198Z,50.81
2018-04-25T13:20:34.721Z,51.66
2018-04-25T13:23:02.170Z,51.20
2018-04-25T13:25:29.634Z,52.26
2018-04-25T13:27:57.107Z,53.58
2018-04-25T13:30:24.600Z,55.74
2018-04-25T13:32:52.056Z,57.60
2018-04-25T13:35:19.615Z,58.73
2018-04-25T13:37:47.103Z,60.25
2018-04-25T13:40:14.776Z,60.42
2018-04-25T13:42:42.216Z,59.74
2018-04-25T13:45:09.692Z,60.16
2018-04-25T13:47:37.195Z,60.29
2018-04-25T13:50:04.655Z,61.08
2018-04-25T13:52:32.204Z,61.54
2018-04-25T13:54:59.701Z,60.76
2018-04-25T13:57:27.157Z,60.53
2018-04-25T13:59:54.613Z,59.50
2018-04-25T14:02:22.103Z,58.86
2018-04-25T14:04:49.544Z,58.73
2018-04-25T14:07:17.009Z,58.03
2018-04-25T14:09:44.443Z,56.81
2018-04-25T14:12:11.923Z,54.95
2018-04-25T14:14:39.441Z,54.11
2018-04-25T14:17:06.903Z,53.83
2018-04-25T14:19:34.483Z,53.86
2018-04-25T14:22:02.006Z,54.07
2018-04-25T14:24:29.494Z,55.25
2018-04-25T14:26:57.097Z,55.09
2018-04-25T14:29:24.621Z,55.44
2018-04-25T14:31:52.195Z,55.68
2018-04-25T14:34:19.734Z,56.60
2018-04-25T14:36:47.173Z,56.35
2018-04-25T14:41:46.957Z,56.36
2018-04-25T14:44:14.498Z,56.23
2018-04-25T14:46:41.936Z,56.46
2018-04-25T14:49:09.719Z,55.09
2018-04-25T14:51:37.327Z,54.23
2018-04-25T14:54:04.838Z,53.96
2018-04-25T14:56:32.381Z,53.23
2018-04-25T14:58:59.916Z,53.05
2018-04-25T15:01:27.891Z,53.47
2018-04-25T15:03:55.293Z,54.01
2018-04-25T15:06:24.324Z,54.90
2018-04-25T15:08:51.830Z,55.00
2018-04-25T15:11:20.195Z,55.68
2018-04-25T15:13:47.672Z,56.33
2018-04-25T15:16:15.182Z,57.37
2018-04-25T15:18:42.692Z,58.21
2018-04-25T15:21:10.185Z,58.64
2018-04-25T15:23:37.671Z,60.07
2018-04-25T15:26:05.169Z,61.59
2018-04-25T15:28:32.820Z,61.76
2018-04-25T15:31:00.427Z,61.61
2018-04-25T15:33:27.956Z,63.10
2018-04-25T15:35:55.488Z,63.34
2018-04-25T15:38:22.945Z,62.80
2018-04-25T15:40:50.504Z,63.42
2018-04-25T15:43:18.004Z,63.17
2018-04-25T15:45:45.542Z,64.49
2018-04-25T15:48:13.007Z,65.78
2018-04-25T15:50:40.550Z,65.58
2018-04-25T15:53:08.103Z,66.43
2018-04-25T15:55:35.563Z,67.47
2018-04-25T15:58:03.583Z,67.25
2018-04-25T16:00:31.007Z,66.85
2018-04-25T16:02:58.504Z,67.54
2018-04-25T16:05:26.018Z,68.31
2018-04-25T16:07:53.458Z,68.88
2018-04-25T16:10:20.942Z,67.57
2018-04-25T16:12:48.402Z,67.50
2018-04-25T16:15:15.880Z,68.21
2018-04-25T16:17:43.389Z,69.02
2018-04-25T16:20:10.944Z,69.60
2018-04-25T16:22:38.414Z,69.40
2018-04-25T16:25:05.903Z,69.01
2018-04-25T16:27:33.447Z,69.01
2018-04-25T16:30:00.882Z,68.28
2018-04-25T16:32:28.333Z,68.88
2018-04-25T16:34:55.789Z,69.16
2018-04-25T16:37:23.351Z,69.89
2018-04-25T16:39:50.795Z,69.79
2018-04-25T16:42:18.279Z,69.06
2018-04-25T16:44:45.745Z,69.88
2018-04-25T16:47:13.208Z,69.47
2018-04-25T16:49:40.813Z,68.96
2018-04-25T16:52:08.268Z,68.54
2018-04-25T16:54:35.826Z,68.64
2018-04-25T16:57:03.419Z,68.93
2018-04-25T16:59:30.848Z,69.31
2018-04-25T17:01:58.306Z,66.95
2018-04-25T17:04:25.784Z,67.06
2018-04-25T17:06:53.219Z,68.23
2018-04-25T17:09:20.787Z,68.96
2018-04-25T17:11:48.240Z,69.10
2018-04-25T17:14:15.695Z,69.25
2018-04-25T17:16:43.204Z,67.84
2018-04-25T17:19:10.663Z,67.10
2018-04-25T17:21:38.112Z,66.15
2018-04-25T17:24:05.574Z,66.58
2018-04-25T17:26:33.026Z,67.15
2018-04-25T17:29:00.529Z,67.41
2018-04-25T17:31:28.046Z,68.17
2018-04-25T17:33:55.681Z,68.21
2018-04-25T17:36:23.158Z,68.47
2018-04-25T17:38:50.603Z,68.83
2018-04-25T17:41:18.092Z,68.03
2018-04-25T17:43:45.608Z,66.77
2018-04-25T17:46:13.076Z,66.80
2018-04-25T17:48:40.595Z,67.19
2018-04-25T17:51:08.097Z,67.46
2018-04-25T17:53:35.585Z,68.24
2018-04-25T17:56:03.088Z,67.46
2018-04-25T17:58:30.605Z,67.30
2018-04-25T18:00:58.109Z,65.89
2018-04-25T18:03:25.801Z,66.38
2018-04-25T18:05:53.279Z,65.28
2018-04-25T18:08:20.742Z,62.71
2018-04-25T18:10:48.262Z,63.37
2018-04-25T18:13:15.797Z,63.83
2018-04-25T18:15:43.255Z,64.29
2018-04-25T18:18:10.735Z,64.98
2018-04-25T18:20:38.213Z,64.44
2018-04-25T18:23:05.725Z,65.03
2018-04-25T18:25:33.238Z,64.39
2018-04-25T18:28:00.704Z,64.16
2018-04-25T18:30:28.152Z,64.23
2018-04-25T18:32:55.657Z,64.13
2018-04-25T18:35:23.155Z,63.89
2018-04-25T18:37:50.610Z,64.20
2018-04-25T18:40:18.151Z,64.45
2018-04-25T18:42:45.713Z,64.24
2018-04-25T18:45:13.178Z,64.63
2018-04-25T18:47:40.738Z,64.81
2018-04-25T18:50:08.231Z,63.93
2018-04-25T18:52:35.689Z,64.48
2018-04-25T18:55:03.212Z,63.65
2018-04-25T18:57:30.774Z,62.25
2018-04-25T18:59:58.275Z,62.73
2018-04-25T19:02:25.829Z,62.42
2018-04-25T19:04:53.305Z,61.15
2018-04-25T19:07:20.798Z,60.46
2018-04-25T19:09:48.314Z,61.27
2018-04-25T19:12:15.832Z,60.72
2018-04-25T19:14:43.298Z,61.38
2018-04-25T19:17:10.802Z,61.47
2018-04-25T19:19:38.249Z,61.33
2018-04-25T19:22:05.764Z,61.89
2018-04-25T19:24:33.250Z,62.09
2018-04-25T19:27:00.740Z,62.35
2018-04-25T19:29:28.190Z,62.49
2018-04-25T19:31:55.646Z,63.02
2018-04-25T19:34:23.156Z,62.64
2018-04-25T19:36:50.659Z,62.61
2018-04-25T19:39:18.244Z,62.57
2018-04-25T19:41:46.328Z,62.44
2018-04-25T19:44:13.816Z,62.15
2018-04-25T19:46:41.456Z,62.04
2018-04-25T19:49:08.924Z,61.86
2018-04-25T19:51:36.472Z,61.72
2018-04-25T19:54:04.010Z,61.48
2018-04-25T19:56:31.697Z,61.62
2018-04-25T19:58:59.176Z,61.39
2018-04-25T20:01:26.666Z,61.23
2018-04-25T20:03:54.191Z,61.38
2018-04-25T20:06:21.684Z,61.32
2018-04-25T20:08:53.238Z,61.45
2018-04-25T20:11:20.768Z,61.10
2018-04-25T20:13:48.362Z,61.21
2018-04-25T20:16:15.831Z,61.58
2018-04-25T20:18:43.269Z,61.98
2018-04-25T20:21:10.804Z,62.17
2018-04-25T20:23:38.312Z,61.73
2018-04-25T20:26:05.738Z,62.18
2018-04-25T20:28:33.251Z,62.05
2018-04-25T20:31:00.739Z,61.55
2018-04-25T20:33:28.215Z,61.44
2018-04-25T20:35:55.676Z,61.90
2018-04-25T20:38:23.145Z,61.88
2018-04-25T20:40:50.593Z,62.13
2018-04-25T20:43:18.030Z,61.98
2018-04-25T20:45:45.506Z,62.09
2018-04-25T20:48:12.978Z,62.10
2018-04-25T20:50:40.507Z,62.17
2018-04-25T20:53:07.982Z,61.76
2018-04-25T20:55:35.615Z,61.01
2018-04-25T20:58:03.285Z,61.81
2018-04-25T21:00:35.839Z,62.52
2018-04-25T21:03:03.399Z,62.27
2018-04-25T21:05:31.050Z,63.29
2018-04-25T21:07:58.515Z,63.52
2018-04-25T21:10:25.985Z,64.03
2018-04-25T21:12:53.491Z,64.80
2018-04-25T21:15:20.989Z,65.33
2018-04-25T21:17:48.461Z,65.94
2018-04-25T21:20:24.292Z,66.29
2018-04-25T21:22:51.851Z,66.57
2018-04-25T21:25:19.335Z,66.44
2018-04-25T21:27:46.788Z,66.36
2018-04-25T21:30:14.250Z,66.01
2018-04-25T21:32:41.746Z,65.81
2018-04-25T21:35:09.239Z,65.84
2018-04-25T21:37:36.695Z,66.06
2018-04-25T21:40:04.191Z,65.47
2018-04-25T21:42:31.663Z,64.74
2018-04-25T21:44:59.134Z,65.00
2018-04-25T21:47:26.659Z,65.59
2018-04-25T21:49:54.133Z,65.97
2018-04-25T21:52:21.588Z,65.72
2018-04-25T21:54:49.116Z,65.97
2018-04-25T21:57:16.588Z,65.90
2018-04-25T21:59:44.052Z,65.75
2018-04-25T22:02:11.492Z,65.98
2018-04-25T22:04:39.015Z,65.96
2018-04-25T22:07:06.456Z,66.17
2018-04-25T22:09:33.892Z,66.29
2018-04-25T22:12:01.351Z,66.26
2018-04-25T22:14:28.861Z,66.07
2018-04-25T22:16:56.316Z,66.96
2018-04-25T22:19:23.774Z,66.45
2018-04-25T22:21:51.277Z,66.40
2018-04-25T22:24:18.748Z,66.64
2018-04-25T22:26:46.220Z,67.06
2018-04-25T22:29:13.760Z,67.34
2018-04-25T22:31:41.215Z,67.83
2018-04-25T22:34:08.713Z,68.47
2018-04-25T22:36:36.178Z,69.09
2018-04-25T22:39:03.864Z,68.92
2018-04-25T22:41:31.321Z,68.58
2018-04-25T22:43:58.773Z,68.50
2018-04-25T22:46:26.269Z,68.83
2018-04-25T22:48:53.741Z,68.73
2018-04-25T22:51:21.187Z,68.69
2018-04-25T22:53:48.655Z,68.76
2018-04-25T22:56:16.105Z,68.80
2018-04-25T22:58:43.547Z,68.37
2018-04-25T23:01:11.023Z,68.52
2018-04-25T23:03:38.467Z,68.99
2018-04-25T23:06:05.995Z,68.97
2018-04-25T23:08:33.492Z,69.41
2018-04-25T23:11:01.015Z,69.74
2018-04-25T23:13:28.463Z,69.85
2018-04-25T23:15:55.935Z,69.67
2018-04-25T23:18:23.377Z,70.07
2018-04-25T23:20:50.941Z,69.97
2018-04-25T23:23:18.387Z,69.92
2018-04-25T23:25:45.909Z,69.84
2018-04-25T23:28:13.421Z,70.03
2018-04-25T23:30:40.955Z,69.91
2018-04-25T23:33:08.433Z,69.78
2018-04-25T23:35:35.882Z,69.78
2018-04-25T23:38:03.339Z,70.03
2018-04-25T23:40:30.782Z,70.13
2018-04-25T23:42:58.254Z,70.21
2018-04-25T23:45:25.741Z,70.43
2018-04-25T23:47:53.183Z,70.74
2018-04-25T23:50:20.991Z,71.01
2018-04-25T23:52:48.426Z,71.20
2018-04-25T23:55:15.930Z,71.55
2018-04-25T23:57:43.391Z,71.52
